Terminal Aerodrome Forecast
Issued by NWS

Home | Current Version | Previous Version | Text Only | Print | Product List | Glossary On
Versions: 1 2 3 4 5 6 7 8 9 10 11 12 13 14 15 16 17 18 19 20 21 22
000
FTUS43 KLSX 222329
TAFCPS
TAF
KCPS 222329Z 2300/2324 32009KT P6SM SCT018 BKN025
      TEMPO 2300/2304 BKN018
     FM230400 VRB04KT P6SM OVC018
     FM231700 25005KT P6SM BKN025
     FM232000 23006KT P6SM BKN035=

USA.gov is the U.S. government's official web portal to all federal, state and local government web resources and services.